sensor_id;sensor_type;location;lat;lon;timestamp;P1;durP1;ratioP1;P2;durP2;ratioP2
18732;SDS011;9495;51.210;2.934;2023-02-10T00:01:35;454.50;;;79.23;;
18732;SDS011;9495;51.210;2.934;2023-02-10T00:04:03;337.10;;;67.33;;
18732;SDS011;9495;51.210;2.934;2023-02-10T00:06:32;310.57;;;64.50;;
18732;SDS011;9495;51.210;2.934;2023-02-10T00:09:01;499.23;;;84.60;;
18732;SDS011;9495;51.210;2.934;2023-02-10T00:11:31;338.37;;;65.70;;
18732;SDS011;9495;51.210;2.934;2023-02-10T00:14:17;354.53;;;69.50;;
18732;SDS011;9495;51.210;2.934;2023-02-10T00:16:48;398.67;;;74.30;;
18732;SDS011;9495;51.210;2.934;2023-02-10T00:19:18;473.90;;;82.33;;
18732;SDS011;9495;51.210;2.934;2023-02-10T00:21:46;422.97;;;81.77;;
18732;SDS011;9495;51.210;2.934;2023-02-10T00:24:15;427.77;;;81.00;;
18732;SDS011;9495;51.210;2.934;2023-02-10T00:26:45;409.87;;;78.73;;
18732;SDS011;9495;51.210;2.934;2023-02-10T00:29:13;369.03;;;74.00;;
18732;SDS011;9495;51.210;2.934;2023-02-10T00:31:42;273.03;;;67.27;;
18732;SDS011;9495;51.210;2.934;2023-02-10T00:34:11;384.67;;;78.73;;
18732;SDS011;9495;51.210;2.934;2023-02-10T00:36:41;314.07;;;73.93;;
18732;SDS011;9495;51.210;2.934;2023-02-10T00:39:11;279.33;;;71.53;;
18732;SDS011;9495;51.210;2.934;2023-02-10T00:41:41;214.37;;;66.93;;
18732;SDS011;9495;51.210;2.934;2023-02-10T00:44:11;301.07;;;72.07;;
18732;SDS011;9495;51.210;2.934;2023-02-10T00:46:39;347.37;;;82.50;;
18732;SDS011;9495;51.210;2.934;2023-02-10T00:49:08;310.87;;;75.13;;
18732;SDS011;9495;51.210;2.934;2023-02-10T00:51:37;213.10;;;63.97;;
18732;SDS011;9495;51.210;2.934;2023-02-10T00:54:06;374.57;;;82.30;;
18732;SDS011;9495;51.210;2.934;2023-02-10T00:56:34;252.77;;;73.90;;
18732;SDS011;9495;51.210;2.934;2023-02-10T00:59:02;186.47;;;64.97;;
18732;SDS011;9495;51.210;2.934;2023-02-10T01:01:32;163.50;;;63.77;;
18732;SDS011;9495;51.210;2.934;2023-02-10T01:04:00;248.93;;;73.13;;
18732;SDS011;9495;51.210;2.934;2023-02-10T01:06:29;246.63;;;72.63;;
18732;SDS011;9495;51.210;2.934;2023-02-10T01:08:57;174.93;;;65.77;;
18732;SDS011;9495;51.210;2.934;2023-02-10T01:11:26;147.83;;;63.50;;
18732;SDS011;9495;51.210;2.934;2023-02-10T01:13:54;249.07;;;75.80;;
18732;SDS011;9495;51.210;2.934;2023-02-10T01:16:23;205.70;;;68.83;;
18732;SDS011;9495;51.210;2.934;2023-02-10T01:18:52;208.87;;;70.07;;
18732;SDS011;9495;51.210;2.934;2023-02-10T01:21:21;254.23;;;78.67;;
18732;SDS011;9495;51.210;2.934;2023-02-10T01:23:50;262.53;;;76.13;;
18732;SDS011;9495;51.210;2.934;2023-02-10T01:26:18;273.27;;;79.60;;
18732;SDS011;9495;51.210;2.934;2023-02-10T01:28:46;261.40;;;78.70;;
18732;SDS011;9495;51.210;2.934;2023-02-10T01:31:15;239.13;;;78.80;;
18732;SDS011;9495;51.210;2.934;2023-02-10T01:33:45;336.50;;;86.23;;
18732;SDS011;9495;51.210;2.934;2023-02-10T01:36:16;251.40;;;75.90;;
18732;SDS011;9495;51.210;2.934;2023-02-10T01:38:46;259.17;;;76.70;;
18732;SDS011;9495;51.210;2.934;2023-02-10T01:41:14;368.73;;;87.90;;
18732;SDS011;9495;51.210;2.934;2023-02-10T01:43:55;220.40;;;71.40;;
18732;SDS011;9495;51.210;2.934;2023-02-10T01:46:27;240.37;;;77.40;;
18732;SDS011;9495;51.210;2.934;2023-02-10T01:48:57;229.30;;;76.53;;
18732;SDS011;9495;51.210;2.934;2023-02-10T01:51:33;246.23;;;77.97;;
18732;SDS011;9495;51.210;2.934;2023-02-10T01:54:05;350.10;;;82.37;;
18732;SDS011;9495;51.210;2.934;2023-02-10T01:56:37;389.47;;;89.87;;
18732;SDS011;9495;51.210;2.934;2023-02-10T01:59:06;319.77;;;83.07;;
18732;SDS011;9495;51.210;2.934;2023-02-10T02:01:34;382.47;;;91.47;;
18732;SDS011;9495;51.210;2.934;2023-02-10T02:04:03;497.67;;;102.00;;
18732;SDS011;9495;51.210;2.934;2023-02-10T02:06:33;434.77;;;101.17;;
18732;SDS011;9495;51.210;2.934;2023-02-10T02:09:02;337.93;;;88.93;;
18732;SDS011;9495;51.210;2.934;2023-02-10T02:11:33;360.30;;;94.30;;
18732;SDS011;9495;51.210;2.934;2023-02-10T02:14:14;493.40;;;103.33;;
18732;SDS011;9495;51.210;2.934;2023-02-10T02:16:53;558.50;;;111.47;;
18732;SDS011;9495;51.210;2.934;2023-02-10T02:19:35;686.17;;;121.60;;
18732;SDS011;9495;51.210;2.934;2023-02-10T02:23:01;686.03;;;122.87;;
18732;SDS011;9495;51.210;2.934;2023-02-10T02:26:10;555.70;;;112.73;;
18732;SDS011;9495;51.210;2.934;2023-02-10T02:29:06;462.87;;;101.00;;
18732;SDS011;9495;51.210;2.934;2023-02-10T02:31:48;526.70;;;110.90;;
18732;SDS011;9495;51.210;2.934;2023-02-10T02:34:25;292.67;;;84.60;;
18732;SDS011;9495;51.210;2.934;2023-02-10T02:37:01;330.47;;;88.23;;
18732;SDS011;9495;51.210;2.934;2023-02-10T02:39:33;234.40;;;78.93;;
18732;SDS011;9495;51.210;2.934;2023-02-10T02:42:10;463.87;;;103.60;;
18732;SDS011;9495;51.210;2.934;2023-02-10T02:44:42;323.87;;;91.90;;
18732;SDS011;9495;51.210;2.934;2023-02-10T02:47:14;300.27;;;91.70;;
18732;SDS011;9495;51.210;2.934;2023-02-10T02:49:49;418.43;;;100.97;;
18732;SDS011;9495;51.210;2.934;2023-02-10T02:52:30;336.27;;;92.03;;
18732;SDS011;9495;51.210;2.934;2023-02-10T02:55:10;246.57;;;79.53;;
18732;SDS011;9495;51.210;2.934;2023-02-10T02:57:45;382.93;;;99.00;;
18732;SDS011;9495;51.210;2.934;2023-02-10T03:00:17;301.63;;;88.17;;
18732;SDS011;9495;51.210;2.934;2023-02-10T03:02:51;276.97;;;87.07;;
18732;SDS011;9495;51.210;2.934;2023-02-10T03:05:21;364.47;;;97.17;;
18732;SDS011;9495;51.210;2.934;2023-02-10T03:07:51;314.73;;;90.40;;
18732;SDS011;9495;51.210;2.934;2023-02-10T03:10:19;436.03;;;102.37;;
18732;SDS011;9495;51.210;2.934;2023-02-10T03:12:49;326.77;;;90.37;;
18732;SDS011;9495;51.210;2.934;2023-02-10T03:15:18;414.10;;;99.50;;
18732;SDS011;9495;51.210;2.934;2023-02-10T03:17:46;264.03;;;85.87;;
18732;SDS011;9495;51.210;2.934;2023-02-10T03:20:16;347.30;;;98.60;;
18732;SDS011;9495;51.210;2.934;2023-02-10T03:22:44;245.40;;;82.57;;
18732;SDS011;9495;51.210;2.934;2023-02-10T03:25:13;405.83;;;100.97;;
18732;SDS011;9495;51.210;2.934;2023-02-10T03:27:41;449.47;;;107.10;;
18732;SDS011;9495;51.210;2.934;2023-02-10T03:30:10;434.17;;;106.40;;
18732;SDS011;9495;51.210;2.934;2023-02-10T03:32:38;439.73;;;105.93;;
18732;SDS011;9495;51.210;2.934;2023-02-10T03:35:07;536.43;;;118.57;;
18732;SDS011;9495;51.210;2.934;2023-02-10T03:37:37;545.33;;;116.63;;
18732;SDS011;9495;51.210;2.934;2023-02-10T03:40:05;615.00;;;130.67;;
18732;SDS011;9495;51.210;2.934;2023-02-10T03:42:34;714.50;;;140.73;;
18732;SDS011;9495;51.210;2.934;2023-02-10T03:45:04;587.97;;;134.20;;
18732;SDS011;9495;51.210;2.934;2023-02-10T03:47:33;648.87;;;135.63;;
18732;SDS011;9495;51.210;2.934;2023-02-10T03:50:02;620.47;;;138.23;;
18732;SDS011;9495;51.210;2.934;2023-02-10T03:52:30;579.87;;;132.63;;
18732;SDS011;9495;51.210;2.934;2023-02-10T03:55:00;529.27;;;127.23;;
18732;SDS011;9495;51.210;2.934;2023-02-10T03:57:28;380.87;;;110.60;;
18732;SDS011;9495;51.210;2.934;2023-02-10T03:59:57;594.37;;;138.03;;
18732;SDS011;9495;51.210;2.934;2023-02-10T04:02:26;719.63;;;153.60;;
18732;SDS011;9495;51.210;2.934;2023-02-10T04:04:55;659.67;;;146.20;;
18732;SDS011;9495;51.210;2.934;2023-02-10T04:07:23;690.63;;;142.37;;
18732;SDS011;9495;51.210;2.934;2023-02-10T04:09:51;582.03;;;133.83;;
18732;SDS011;9495;51.210;2.934;2023-02-10T04:12:21;824.23;;;162.60;;
18732;SDS011;9495;51.210;2.934;2023-02-10T04:14:50;684.63;;;142.47;;
18732;SDS011;9495;51.210;2.934;2023-02-10T04:17:18;850.93;;;168.10;;
18732;SDS011;9495;51.210;2.934;2023-02-10T04:19:46;747.10;;;155.10;;
18732;SDS011;9495;51.210;2.934;2023-02-10T04:22:15;787.70;;;161.77;;
18732;SDS011;9495;51.210;2.934;2023-02-10T04:24:43;725.27;;;156.90;;
18732;SDS011;9495;51.210;2.934;2023-02-10T04:27:12;854.63;;;169.60;;
18732;SDS011;9495;51.210;2.934;2023-02-10T04:29:42;852.90;;;170.17;;
18732;SDS011;9495;51.210;2.934;2023-02-10T04:32:10;1027.70;;;189.83;;
18732;SDS011;9495;51.210;2.934;2023-02-10T04:34:38;732.10;;;160.40;;
18732;SDS011;9495;51.210;2.934;2023-02-10T04:37:07;743.53;;;161.57;;
18732;SDS011;9495;51.210;2.934;2023-02-10T04:39:35;926.67;;;186.53;;
18732;SDS011;9495;51.210;2.934;2023-02-10T04:42:04;607.63;;;149.37;;
18732;SDS011;9495;51.210;2.934;2023-02-10T04:44:32;750.93;;;168.13;;
18732;SDS011;9495;51.210;2.934;2023-02-10T04:47:02;875.13;;;181.63;;
18732;SDS011;9495;51.210;2.934;2023-02-10T04:49:30;662.53;;;154.50;;
18732;SDS011;9495;51.210;2.934;2023-02-10T04:51:59;746.17;;;170.20;;
18732;SDS011;9495;51.210;2.934;2023-02-10T04:54:27;706.87;;;162.13;;
18732;SDS011;9495;51.210;2.934;2023-02-10T04:56:56;868.73;;;180.40;;
18732;SDS011;9495;51.210;2.934;2023-02-10T04:59:24;900.30;;;178.73;;
18732;SDS011;9495;51.210;2.934;2023-02-10T05:01:52;950.37;;;186.03;;
18732;SDS011;9495;51.210;2.934;2023-02-10T05:04:22;871.57;;;178.40;;
18732;SDS011;9495;51.210;2.934;2023-02-10T05:06:51;955.00;;;193.37;;
18732;SDS011;9495;51.210;2.934;2023-02-10T05:09:20;911.67;;;183.83;;
18732;SDS011;9495;51.210;2.934;2023-02-10T05:11:48;901.90;;;187.97;;
18732;SDS011;9495;51.210;2.934;2023-02-10T05:14:17;533.50;;;143.30;;
18732;SDS011;9495;51.210;2.934;2023-02-10T05:16:45;958.13;;;193.00;;
18732;SDS011;9495;51.210;2.934;2023-02-10T05:19:14;829.27;;;178.77;;
18732;SDS011;9495;51.210;2.934;2023-02-10T05:21:43;1028.87;;;194.33;;
18732;SDS011;9495;51.210;2.934;2023-02-10T05:24:12;1146.17;;;208.57;;
18732;SDS011;9495;51.210;2.934;2023-02-10T05:26:40;992.57;;;195.10;;
18732;SDS011;9495;51.210;2.934;2023-02-10T05:29:08;1206.10;;;220.80;;
18732;SDS011;9495;51.210;2.934;2023-02-10T05:31:37;869.17;;;186.20;;
18732;SDS011;9495;51.210;2.934;2023-02-10T05:34:05;1060.83;;;210.30;;
18732;SDS011;9495;51.210;2.934;2023-02-10T05:36:34;891.57;;;190.80;;
18732;SDS011;9495;51.210;2.934;2023-02-10T05:39:04;1150.80;;;218.73;;
18732;SDS011;9495;51.210;2.934;2023-02-10T05:41:51;1253.23;;;232.53;;
18732;SDS011;9495;51.210;2.934;2023-02-10T05:44:20;1002.77;;;205.73;;
18732;SDS011;9495;51.210;2.934;2023-02-10T05:46:48;1025.23;;;206.20;;
18732;SDS011;9495;51.210;2.934;2023-02-10T05:49:17;876.90;;;188.23;;
18732;SDS011;9495;51.210;2.934;2023-02-10T05:51:45;905.27;;;195.27;;
18732;SDS011;9495;51.210;2.934;2023-02-10T05:54:18;665.67;;;161.80;;
18732;SDS011;9495;51.210;2.934;2023-02-10T05:56:47;706.50;;;169.97;;
18732;SDS011;9495;51.210;2.934;2023-02-10T05:59:16;1042.40;;;210.20;;
18732;SDS011;9495;51.210;2.934;2023-02-10T06:01:45;799.70;;;193.50;;
18732;SDS011;9495;51.210;2.934;2023-02-10T06:04:14;794.90;;;193.13;;
18732;SDS011;9495;51.210;2.934;2023-02-10T06:06:42;728.90;;;178.70;;
18732;SDS011;9495;51.210;2.934;2023-02-10T06:09:11;754.67;;;186.67;;
18732;SDS011;9495;51.210;2.934;2023-02-10T06:11:41;717.70;;;179.90;;
18732;SDS011;9495;51.210;2.934;2023-02-10T06:14:09;715.63;;;180.90;;
18732;SDS011;9495;51.210;2.934;2023-02-10T06:16:37;604.00;;;173.10;;
18732;SDS011;9495;51.210;2.934;2023-02-10T06:19:06;706.60;;;183.27;;
18732;SDS011;9495;51.210;2.934;2023-02-10T06:21:34;532.63;;;163.60;;
18732;SDS011;9495;51.210;2.934;2023-02-10T06:24:03;591.50;;;167.17;;
18732;SDS011;9495;51.210;2.934;2023-02-10T06:26:32;725.40;;;183.60;;
18732;SDS011;9495;51.210;2.934;2023-02-10T06:29:02;536.83;;;168.57;;
18732;SDS011;9495;51.210;2.934;2023-02-10T06:31:30;546.30;;;167.33;;
18732;SDS011;9495;51.210;2.934;2023-02-10T06:33:59;663.27;;;178.07;;
18732;SDS011;9495;51.210;2.934;2023-02-10T06:36:27;938.70;;;208.03;;
18732;SDS011;9495;51.210;2.934;2023-02-10T06:38:56;577.20;;;171.00;;
18732;SDS011;9495;51.210;2.934;2023-02-10T06:41:24;593.67;;;167.47;;
18732;SDS011;9495;51.210;2.934;2023-02-10T06:43:53;1318.10;;;265.27;;
18732;SDS011;9495;51.210;2.934;2023-02-10T06:46:23;1216.13;;;275.63;;
18732;SDS011;9495;51.210;2.934;2023-02-10T06:48:52;1033.43;;;245.13;;
18732;SDS011;9495;51.210;2.934;2023-02-10T06:51:20;1269.27;;;245.60;;
18732;SDS011;9495;51.210;2.934;2023-02-10T06:53:49;1189.50;;;235.70;;
18732;SDS011;9495;51.210;2.934;2023-02-10T06:56:18;1266.83;;;241.00;;
18732;SDS011;9495;51.210;2.934;2023-02-10T06:58:46;794.60;;;193.37;;
18732;SDS011;9495;51.210;2.934;2023-02-10T07:01:16;1370.67;;;245.57;;
18732;SDS011;9495;51.210;2.934;2023-02-10T07:03:47;1134.80;;;222.20;;
18732;SDS011;9495;51.210;2.934;2023-02-10T07:06:15;1391.43;;;243.17;;
18732;SDS011;9495;51.210;2.934;2023-02-10T07:08:45;923.20;;;201.70;;
18732;SDS011;9495;51.210;2.934;2023-02-10T07:11:13;1214.07;;;229.37;;
18732;SDS011;9495;51.210;2.934;2023-02-10T07:13:42;1009.83;;;211.80;;
18732;SDS011;9495;51.210;2.934;2023-02-10T07:16:10;657.63;;;180.17;;
18732;SDS011;9495;51.210;2.934;2023-02-10T07:18:41;1422.53;;;255.10;;
18732;SDS011;9495;51.210;2.934;2023-02-10T07:21:11;1385.90;;;251.40;;
18732;SDS011;9495;51.210;2.934;2023-02-10T07:23:40;961.57;;;222.97;;
18732;SDS011;9495;51.210;2.934;2023-02-10T07:26:08;1011.67;;;224.50;;
18732;SDS011;9495;51.210;2.934;2023-02-10T07:28:38;688.83;;;186.67;;
18732;SDS011;9495;51.210;2.934;2023-02-10T07:31:07;940.30;;;219.10;;
18732;SDS011;9495;51.210;2.934;2023-02-10T07:33:36;912.23;;;216.97;;
18732;SDS011;9495;51.210;2.934;2023-02-10T07:36:05;1179.83;;;244.97;;
18732;SDS011;9495;51.210;2.934;2023-02-10T07:38:36;674.27;;;193.97;;
18732;SDS011;9495;51.210;2.934;2023-02-10T07:41:05;825.10;;;242.88;;
18732;SDS011;9495;51.210;2.934;2023-02-10T07:43:34;834.83;;;230.30;;
18732;SDS011;9495;51.210;2.934;2023-02-10T07:46:02;1016.57;;;221.57;;
18732;SDS011;9495;51.210;2.934;2023-02-10T07:48:31;877.57;;;203.43;;
18732;SDS011;9495;51.210;2.934;2023-02-10T07:50:59;945.00;;;210.13;;
18732;SDS011;9495;51.210;2.934;2023-02-10T07:53:28;836.47;;;194.87;;
18732;SDS011;9495;51.210;2.934;2023-02-10T07:55:58;942.87;;;216.43;;
18732;SDS011;9495;51.210;2.934;2023-02-10T07:58:27;1093.20;;;221.43;;
18732;SDS011;9495;51.210;2.934;2023-02-10T08:00:56;1126.43;;;230.57;;
18732;SDS011;9495;51.210;2.934;2023-02-10T08:03:24;1114.97;;;237.50;;
18732;SDS011;9495;51.210;2.934;2023-02-10T08:05:52;1100.10;;;234.07;;
18732;SDS011;9495;51.210;2.934;2023-02-10T08:08:21;1071.70;;;228.13;;
18732;SDS011;9495;51.210;2.934;2023-02-10T08:10:49;1069.50;;;231.80;;
18732;SDS011;9495;51.210;2.934;2023-02-10T08:13:19;765.83;;;198.80;;
18732;SDS011;9495;51.210;2.934;2023-02-10T08:15:47;955.03;;;225.00;;
18732;SDS011;9495;51.210;2.934;2023-02-10T08:18:16;1131.63;;;243.20;;
18732;SDS011;9495;51.210;2.934;2023-02-10T08:20:45;1338.20;;;266.73;;
18732;SDS011;9495;51.210;2.934;2023-02-10T08:23:14;1103.13;;;242.77;;
18732;SDS011;9495;51.210;2.934;2023-02-10T08:25:44;842.60;;;214.90;;
18732;SDS011;9495;51.210;2.934;2023-02-10T08:28:13;744.17;;;205.97;;
18732;SDS011;9495;51.210;2.934;2023-02-10T08:30:42;915.10;;;227.30;;
18732;SDS011;9495;51.210;2.934;2023-02-10T08:33:11;1203.00;;;254.90;;
18732;SDS011;9495;51.210;2.934;2023-02-10T08:35:40;992.35;;;257.05;;
18732;SDS011;9495;51.210;2.934;2023-02-10T08:38:08;1055.63;;;257.65;;
18732;SDS011;9495;51.210;2.934;2023-02-10T08:40:37;643.83;;;185.17;;
18732;SDS011;9495;51.210;2.934;2023-02-10T08:43:05;1184.70;;;240.70;;
18732;SDS011;9495;51.210;2.934;2023-02-10T08:45:34;1486.57;;;272.73;;
18732;SDS011;9495;51.210;2.934;2023-02-10T08:48:05;739.53;;;186.40;;
18732;SDS011;9495;51.210;2.934;2023-02-10T08:50:34;915.20;;;198.97;;
18732;SDS011;9495;51.210;2.934;2023-02-10T08:53:02;737.07;;;174.80;;
18732;SDS011;9495;51.210;2.934;2023-02-10T08:55:31;705.63;;;181.90;;
18732;SDS011;9495;51.210;2.934;2023-02-10T08:57:59;840.30;;;187.37;;
18732;SDS011;9495;51.210;2.934;2023-02-10T09:00:28;878.17;;;194.90;;
18732;SDS011;9495;51.210;2.934;2023-02-10T09:02:56;808.23;;;194.73;;
18732;SDS011;9495;51.210;2.934;2023-02-10T09:05:27;877.37;;;198.47;;
18732;SDS011;9495;51.210;2.934;2023-02-10T09:07:55;857.57;;;197.07;;
18732;SDS011;9495;51.210;2.934;2023-02-10T09:10:23;854.90;;;184.73;;
18732;SDS011;9495;51.210;2.934;2023-02-10T09:12:52;798.03;;;178.60;;
18732;SDS011;9495;51.210;2.934;2023-02-10T09:15:21;870.77;;;201.63;;
18732;SDS011;9495;51.210;2.934;2023-02-10T09:17:50;863.60;;;197.07;;
18732;SDS011;9495;51.210;2.934;2023-02-10T09:20:18;911.07;;;198.47;;
18732;SDS011;9495;51.210;2.934;2023-02-10T09:22:48;790.47;;;186.17;;
18732;SDS011;9495;51.210;2.934;2023-02-10T09:25:17;805.70;;;194.07;;
18732;SDS011;9495;51.210;2.934;2023-02-10T09:27:45;820.70;;;183.97;;
18732;SDS011;9495;51.210;2.934;2023-02-10T09:30:14;846.97;;;186.27;;
18732;SDS011;9495;51.210;2.934;2023-02-10T09:32:42;913.20;;;203.80;;
18732;SDS011;9495;51.210;2.934;2023-02-10T09:35:11;998.60;;;210.30;;
18732;SDS011;9495;51.210;2.934;2023-02-10T09:37:39;926.53;;;210.70;;
18732;SDS011;9495;51.210;2.934;2023-02-10T09:40:11;861.87;;;197.63;;
18732;SDS011;9495;51.210;2.934;2023-02-10T09:42:51;954.53;;;203.70;;
18732;SDS011;9495;51.210;2.934;2023-02-10T09:45:31;858.37;;;197.13;;
18732;SDS011;9495;51.210;2.934;2023-02-10T09:48:08;951.40;;;211.07;;
18732;SDS011;9495;51.210;2.934;2023-02-10T09:50:51;884.67;;;207.13;;
18732;SDS011;9495;51.210;2.934;2023-02-10T09:53:27;946.57;;;213.37;;
18732;SDS011;9495;51.210;2.934;2023-02-10T09:55:59;756.93;;;187.47;;
18732;SDS011;9495;51.210;2.934;2023-02-10T09:58:30;917.97;;;203.97;;
18732;SDS011;9495;51.210;2.934;2023-02-10T10:01:02;769.87;;;189.60;;
18732;SDS011;9495;51.210;2.934;2023-02-10T10:03:39;795.50;;;188.70;;
18732;SDS011;9495;51.210;2.934;2023-02-10T10:06:16;681.17;;;177.47;;
18732;SDS011;9495;51.210;2.934;2023-02-10T10:08:57;728.97;;;187.10;;
18732;SDS011;9495;51.210;2.934;2023-02-10T10:11:35;646.87;;;176.20;;
18732;SDS011;9495;51.210;2.934;2023-02-10T10:14:05;738.97;;;190.37;;
18732;SDS011;9495;51.210;2.934;2023-02-10T10:19:42;640.00;;;181.07;;
18732;SDS011;9495;51.210;2.934;2023-02-10T10:22:21;692.53;;;184.57;;
18732;SDS011;9495;51.210;2.934;2023-02-10T10:28:04;712.27;;;197.23;;
18732;SDS011;9495;51.210;2.934;2023-02-10T10:30:43;679.23;;;190.67;;
18732;SDS011;9495;51.210;2.934;2023-02-10T10:33:19;725.60;;;194.47;;
18732;SDS011;9495;51.210;2.934;2023-02-10T10:35:49;812.47;;;186.43;;
18732;SDS011;9495;51.210;2.934;2023-02-10T10:38:20;650.30;;;163.03;;
18732;SDS011;9495;51.210;2.934;2023-02-10T10:40:51;628.10;;;158.43;;
18732;SDS011;9495;51.210;2.934;2023-02-10T10:43:23;568.07;;;156.20;;
18732;SDS011;9495;51.210;2.934;2023-02-10T10:45:55;594.53;;;154.80;;
18732;SDS011;9495;51.210;2.934;2023-02-10T10:48:27;566.77;;;153.20;;
18732;SDS011;9495;51.210;2.934;2023-02-10T10:50:59;510.83;;;143.90;;
18732;SDS011;9495;51.210;2.934;2023-02-10T10:53:33;549.97;;;140.53;;
18732;SDS011;9495;51.210;2.934;2023-02-10T10:56:06;546.83;;;141.80;;
18732;SDS011;9495;51.210;2.934;2023-02-10T10:58:41;509.80;;;142.63;;
18732;SDS011;9495;51.210;2.934;2023-02-10T11:01:11;496.47;;;148.00;;
18732;SDS011;9495;51.210;2.934;2023-02-10T11:03:40;479.67;;;142.30;;
18732;SDS011;9495;51.210;2.934;2023-02-10T11:06:09;458.63;;;135.20;;
18732;SDS011;9495;51.210;2.934;2023-02-10T11:08:40;484.77;;;154.18;;
18732;SDS011;9495;51.210;2.934;2023-02-10T11:11:12;490.10;;;139.10;;
18732;SDS011;9495;51.210;2.934;2023-02-10T11:14:09;459.57;;;132.90;;
18732;SDS011;9495;51.210;2.934;2023-02-10T11:16:43;467.17;;;143.70;;
18732;SDS011;9495;51.210;2.934;2023-02-10T11:19:18;469.87;;;147.73;;
18732;SDS011;9495;51.210;2.934;2023-02-10T11:21:48;481.83;;;149.37;;
18732;SDS011;9495;51.210;2.934;2023-02-10T11:24:17;459.77;;;149.40;;
18732;SDS011;9495;51.210;2.934;2023-02-10T11:26:55;456.37;;;151.43;;
18732;SDS011;9495;51.210;2.934;2023-02-10T11:29:26;469.07;;;145.70;;
18732;SDS011;9495;51.210;2.934;2023-02-10T11:31:55;425.70;;;154.47;;
18732;SDS011;9495;51.210;2.934;2023-02-10T11:34:27;449.93;;;151.20;;
18732;SDS011;9495;51.210;2.934;2023-02-10T11:36:57;446.27;;;151.33;;
18732;SDS011;9495;51.210;2.934;2023-02-10T11:39:38;423.23;;;142.87;;
18732;SDS011;9495;51.210;2.934;2023-02-10T11:42:09;433.33;;;146.40;;
18732;SDS011;9495;51.210;2.934;2023-02-10T11:44:40;412.87;;;142.77;;
18732;SDS011;9495;51.210;2.934;2023-02-10T11:47:12;399.77;;;138.73;;
18732;SDS011;9495;51.210;2.934;2023-02-10T11:49:43;361.67;;;135.40;;
18732;SDS011;9495;51.210;2.934;2023-02-10T11:52:16;362.13;;;130.47;;
18732;SDS011;9495;51.210;2.934;2023-02-10T11:54:48;316.40;;;117.43;;
18732;SDS011;9495;51.210;2.934;2023-02-10T11:57:21;328.07;;;113.40;;
18732;SDS011;9495;51.210;2.934;2023-02-10T12:00:16;334.27;;;116.63;;
18732;SDS011;9495;51.210;2.934;2023-02-10T12:03:01;299.83;;;109.93;;
18732;SDS011;9495;51.210;2.934;2023-02-10T12:05:57;288.17;;;105.37;;
18732;SDS011;9495;51.210;2.934;2023-02-10T12:08:35;255.27;;;100.37;;
18732;SDS011;9495;51.210;2.934;2023-02-10T12:11:09;265.83;;;100.60;;
18732;SDS011;9495;51.210;2.934;2023-02-10T12:13:47;265.17;;;95.63;;
18732;SDS011;9495;51.210;2.934;2023-02-10T12:16:23;251.53;;;96.23;;
18732;SDS011;9495;51.210;2.934;2023-02-10T12:18:58;226.93;;;97.23;;
18732;SDS011;9495;51.210;2.934;2023-02-10T12:21:36;239.43;;;96.03;;
18732;SDS011;9495;51.210;2.934;2023-02-10T12:27:11;219.97;;;87.17;;
18732;SDS011;9495;51.210;2.934;2023-02-10T12:29:48;192.67;;;78.67;;
18732;SDS011;9495;51.210;2.934;2023-02-10T12:32:30;167.33;;;73.30;;
18732;SDS011;9495;51.210;2.934;2023-02-10T12:35:09;167.07;;;71.37;;
18732;SDS011;9495;51.210;2.934;2023-02-10T12:37:52;146.30;;;68.90;;
18732;SDS011;9495;51.210;2.934;2023-02-10T12:40:32;175.73;;;66.93;;
18732;SDS011;9495;51.210;2.934;2023-02-10T12:43:15;183.43;;;72.43;;
18732;SDS011;9495;51.210;2.934;2023-02-10T12:46:06;148.73;;;64.57;;
18732;SDS011;9495;51.210;2.934;2023-02-10T12:48:44;113.97;;;52.10;;
18732;SDS011;9495;51.210;2.934;2023-02-10T12:51:35;102.43;;;47.47;;
18732;SDS011;9495;51.210;2.934;2023-02-10T12:54:16;92.43;;;45.47;;
18732;SDS011;9495;51.210;2.934;2023-02-10T12:56:57;98.57;;;44.13;;
18732;SDS011;9495;51.210;2.934;2023-02-10T12:59:32;70.87;;;38.10;;
18732;SDS011;9495;51.210;2.934;2023-02-10T13:02:06;79.67;;;38.23;;
18732;SDS011;9495;51.210;2.934;2023-02-10T13:04:43;42.37;;;23.40;;
18732;SDS011;9495;51.210;2.934;2023-02-10T13:07:16;45.33;;;27.20;;
18732;SDS011;9495;51.210;2.934;2023-02-10T13:09:55;44.67;;;25.70;;
18732;SDS011;9495;51.210;2.934;2023-02-10T13:12:31;44.77;;;26.60;;
18732;SDS011;9495;51.210;2.934;2023-02-10T13:15:03;44.93;;;27.37;;
18732;SDS011;9495;51.210;2.934;2023-02-10T13:17:36;49.43;;;30.10;;
18732;SDS011;9495;51.210;2.934;2023-02-10T13:20:17;54.50;;;32.13;;
18732;SDS011;9495;51.210;2.934;2023-02-10T13:22:53;48.90;;;30.90;;
18732;SDS011;9495;51.210;2.934;2023-02-10T13:25:30;58.03;;;32.70;;
18732;SDS011;9495;51.210;2.934;2023-02-10T13:28:11;51.73;;;31.93;;
18732;SDS011;9495;51.210;2.934;2023-02-10T13:30:50;45.90;;;29.90;;
18732;SDS011;9495;51.210;2.934;2023-02-10T13:33:31;54.30;;;30.10;;
18732;SDS011;9495;51.210;2.934;2023-02-10T13:36:09;51.80;;;30.20;;
18732;SDS011;9495;51.210;2.934;2023-02-10T13:38:42;44.50;;;29.57;;
18732;SDS011;9495;51.210;2.934;2023-02-10T13:41:22;33.73;;;22.77;;
18732;SDS011;9495;51.210;2.934;2023-02-10T13:44:17;38.07;;;22.87;;
18732;SDS011;9495;51.210;2.934;2023-02-10T13:46:53;35.07;;;22.13;;
18732;SDS011;9495;51.210;2.934;2023-02-10T13:49:25;29.60;;;19.37;;
18732;SDS011;9495;51.210;2.934;2023-02-10T13:52:04;31.53;;;18.07;;
18732;SDS011;9495;51.210;2.934;2023-02-10T13:54:39;25.80;;;16.47;;
18732;SDS011;9495;51.210;2.934;2023-02-10T13:57:21;26.20;;;18.33;;
18732;SDS011;9495;51.210;2.934;2023-02-10T13:59:51;22.77;;;16.63;;
18732;SDS011;9495;51.210;2.934;2023-02-10T14:02:20;22.13;;;13.20;;
18732;SDS011;9495;51.210;2.934;2023-02-10T14:04:52;24.03;;;14.27;;
18732;SDS011;9495;51.210;2.934;2023-02-10T14:07:32;25.43;;;15.50;;
18732;SDS011;9495;51.210;2.934;2023-02-10T14:10:04;23.00;;;14.70;;
18732;SDS011;9495;51.210;2.934;2023-02-10T14:12:35;20.77;;;12.90;;
18732;SDS011;9495;51.210;2.934;2023-02-10T14:17:58;22.67;;;13.47;;
18732;SDS011;9495;51.210;2.934;2023-02-10T14:20:30;20.50;;;12.13;;
18732;SDS011;9495;51.210;2.934;2023-02-10T14:23:04;19.63;;;11.70;;
18732;SDS011;9495;51.210;2.934;2023-02-10T14:25:36;23.00;;;13.10;;
18732;SDS011;9495;51.210;2.934;2023-02-10T14:28:15;16.30;;;12.07;;
18732;SDS011;9495;51.210;2.934;2023-02-10T14:30:50;15.63;;;10.77;;
18732;SDS011;9495;51.210;2.934;2023-02-10T14:33:24;22.73;;;11.20;;
18732;SDS011;9495;51.210;2.934;2023-02-10T14:35:55;17.90;;;11.40;;
18732;SDS011;9495;51.210;2.934;2023-02-10T14:38:28;19.30;;;11.90;;
18732;SDS011;9495;51.210;2.934;2023-02-10T14:40:58;19.17;;;12.40;;
18732;SDS011;9495;51.210;2.934;2023-02-10T14:43:45;19.70;;;11.13;;
18732;SDS011;9495;51.210;2.934;2023-02-10T14:46:17;15.67;;;9.93;;
18732;SDS011;9495;51.210;2.934;2023-02-10T14:48:49;20.73;;;11.43;;
18732;SDS011;9495;51.210;2.934;2023-02-10T14:51:25;20.13;;;10.67;;
18732;SDS011;9495;51.210;2.934;2023-02-10T14:54:06;15.33;;;8.97;;